Wetterdaten: Woche 18.06.18 - 24.06.18 (KW25)
Datum Zeit Temperatur Luftfeuchte Luftdruck Niederschlag Windrichtung Sonnenschein Solar Wind
18.06.2018 00:00 15,2 C 97 % 1018,2 hPa 0,0 l/m N 0,00 h 0 W/m 0,0 km/h (0 Bft)
18.06.2018 01:00 15,3 C 97 % 1018,5 hPa 0,0 l/m N 0,00 h 0 W/m 0,0 km/h (0 Bft)
18.06.2018 02:00 15,0 C 97 % 1018,6 hPa 0,0 l/m N 0,00 h 0 W/m 0,0 km/h (0 Bft)
18.06.2018 03:00 14,9 C 95 % 1018,5 hPa 0,0 l/m N 0,00 h 0 W/m 0,0 km/h (0 Bft)
18.06.2018 04:00 14,6 C 94 % 1018,5 hPa 0,0 l/m N 0,00 h 0 W/m 0,0 km/h (0 Bft)
18.06.2018 05:00 14,2 C 95 % 1018,9 hPa 0,0 l/m N 0,00 h 9 W/m 0,0 km/h (0 Bft)
18.06.2018 06:00 14,1 C 95 % 1019,2 hPa 0,0 l/m N 0,08 h 52 W/m 0,0 km/h (0 Bft)
18.06.2018 07:00 15,1 C 90 % 1019,6 hPa 0,0 l/m N 0,08 h 119 W/m 0,0 km/h (0 Bft)
18.06.2018 08:00 15,7 C 81 % 1019,9 hPa 0,0 l/m N 0,00 h 172 W/m 0,0 km/h (0 Bft)
18.06.2018 09:00 16,4 C 75 % 1020,1 hPa 0,0 l/m N 0,25 h 299 W/m 0,0 km/h (0 Bft)
18.06.2018 10:00 17,5 C 71 % 1020,0 hPa 0,0 l/m N 0,67 h 492 W/m 1,5 km/h (1 Bft)
18.06.2018 11:00 18,8 C 68 % 1020,0 hPa 0,0 l/m W-NW 0,75 h 733 W/m 4,6 km/h (1 Bft)
18.06.2018 12:00 19,7 C 67 % 1020,1 hPa 0,0 l/m W 0,92 h 640 W/m 7,2 km/h (2 Bft)
18.06.2018 13:00 20,8 C 61 % 1019,8 hPa 0,0 l/m W-NW 0,50 h 625 W/m 10,5 km/h (2 Bft)
18.06.2018 14:00 21,4 C 60 % 1019,6 hPa 0,0 l/m W-NW 0,33 h 574 W/m 3,1 km/h (1 Bft)
18.06.2018 15:00 22,1 C 58 % 1019,5 hPa 0,0 l/m N-NW 0,17 h 421 W/m 4,1 km/h (1 Bft)
18.06.2018 16:00 22,8 C 56 % 1019,2 hPa 0,0 l/m W 0,75 h 624 W/m 4,8 km/h (1 Bft)
18.06.2018 17:00 23,1 C 53 % 1019,0 hPa 0,0 l/m N-NW 0,50 h 390 W/m 4,3 km/h (1 Bft)
18.06.2018 18:00 22,6 C 55 % 1019,0 hPa 0,0 l/m N 0,08 h 188 W/m 1,1 km/h (0 Bft)
18.06.2018 19:00 21,9 C 60 % 1019,0 hPa 0,0 l/m N 0,17 h 138 W/m 0,0 km/h (0 Bft)
18.06.2018 20:00 20,9 C 66 % 1019,2 hPa 0,0 l/m N 0,08 h 40 W/m 0,0 km/h (0 Bft)
18.06.2018 21:00 19,1 C 76 % 1019,3 hPa 0,0 l/m N 0,08 h 9 W/m 0,0 km/h (0 Bft)
18.06.2018 22:00 18,6 C 75 % 1020,1 hPa 0,0 l/m N-NO 0,00 h 0 W/m 9,0 km/h (2 Bft)
18.06.2018 23:00 17,7 C 75 % 1020,7 hPa 0,0 l/m N 0,00 h 0 W/m 2,4 km/h (1 Bft)
19.06.2018 00:00 15,9 C 83 % 1020,8 hPa 0,0 l/m N 0,00 h 0 W/m 0,0 km/h (0 Bft)
19.06.2018 01:00 14,5 C 88 % 1020,9 hPa 0,0 l/m N 0,00 h 0 W/m 0,0 km/h (0 Bft)
19.06.2018 02:00 13,6 C 90 % 1020,9 hPa 0,0 l/m N 0,00 h 0 W/m 0,0 km/h (0 Bft)
19.06.2018 03:00 12,9 C 93 % 1021,1 hPa 0,0 l/m N 0,00 h 0 W/m 0,0 km/h (0 Bft)
19.06.2018 04:00 13,1 C 94 % 1021,3 hPa 0,0 l/m N 0,00 h 0 W/m 0,0 km/h (0 Bft)
19.06.2018 05:00 13,3 C 94 % 1021,7 hPa 0,0 l/m N 0,00 h 11 W/m 0,0 km/h (0 Bft)
19.06.2018 06:00 14,0 C 93 % 1022,1 hPa 0,0 l/m N 0,00 h 37 W/m 0,0 km/h (0 Bft)
19.06.2018 07:00 14,8 C 93 % 1022,3 hPa 0,0 l/m N 0,08 h 125 W/m 0,0 km/h (0 Bft)
19.06.2018 08:00 16,2 C 92 % 1022,6 hPa 0,0 l/m N 0,42 h 261 W/m 0,0 km/h (0 Bft)
19.06.2018 09:00 18,6 C 79 % 1022,6 hPa 0,0 l/m N 0,33 h 304 W/m 2,5 km/h (1 Bft)
19.06.2018 10:00 20,1 C 71 % 1022,5 hPa 0,0 l/m N 0,33 h 436 W/m 3,8 km/h (1 Bft)
19.06.2018 11:00 20,7 C 68 % 1022,1 hPa 0,0 l/m N 0,58 h 663 W/m 2,3 km/h (1 Bft)
19.06.2018 12:00 21,9 C 63 % 1021,9 hPa 0,0 l/m W 0,42 h 686 W/m 3,2 km/h (1 Bft)
19.06.2018 13:00 22,7 C 63 % 1021,8 hPa 0,0 l/m W-NW 0,42 h 637 W/m 5,9 km/h (2 Bft)
19.06.2018 14:00 23,6 C 58 % 1021,5 hPa 0,0 l/m N 0,50 h 673 W/m 2,1 km/h (1 Bft)
19.06.2018 15:00 25,0 C 53 % 1021,0 hPa 0,0 l/m N 0,83 h 785 W/m 2,8 km/h (1 Bft)
19.06.2018 16:00 25,7 C 51 % 1020,8 hPa 0,0 l/m NW 0,92 h 712 W/m 5,5 km/h (1 Bft)
19.06.2018 17:00 26,1 C 49 % 1020,4 hPa 0,0 l/m O-NO 0,92 h 619 W/m 7,0 km/h (2 Bft)
19.06.2018 18:00 25,4 C 50 % 1020,2 hPa 0,0 l/m N 0,75 h 338 W/m 4,3 km/h (1 Bft)
19.06.2018 19:00 25,0 C 51 % 1020,0 hPa 0,0 l/m O 1,00 h 207 W/m 5,2 km/h (1 Bft)
19.06.2018 20:00 23,3 C 57 % 1020,0 hPa 0,0 l/m N 0,08 h 46 W/m 1,1 km/h (0 Bft)
19.06.2018 21:00 19,7 C 73 % 1020,0 hPa 0,0 l/m N 0,08 h 8 W/m 0,0 km/h (0 Bft)
19.06.2018 22:00 17,7 C 80 % 1020,1 hPa 0,0 l/m N 0,00 h 0 W/m 0,0 km/h (0 Bft)
19.06.2018 23:00 16,7 C 84 % 1020,1 hPa 0,0 l/m N 0,00 h 0 W/m 0,0 km/h (0 Bft)
20.06.2018 00:00 15,9 C 87 % 1020,2 hPa 0,0 l/m N 0,00 h 0 W/m 0,0 km/h (0 Bft)
20.06.2018 01:00 15,8 C 88 % 1020,1 hPa 0,0 l/m N 0,00 h 0 W/m 0,0 km/h (0 Bft)
20.06.2018 02:00 15,2 C 90 % 1019,9 hPa 0,0 l/m N 0,00 h 0 W/m 0,0 km/h (0 Bft)
20.06.2018 03:00 14,7 C 93 % 1019,5 hPa 0,0 l/m N 0,00 h 0 W/m 0,0 km/h (0 Bft)
20.06.2018 04:00 14,6 C 93 % 1019,5 hPa 0,0 l/m N 0,00 h 0 W/m 0,1 km/h (0 Bft)
20.06.2018 05:00 14,4 C 94 % 1019,3 hPa 0,0 l/m N 0,08 h 11 W/m 0,0 km/h (0 Bft)
20.06.2018 06:00 14,7 C 95 % 1019,2 hPa 0,0 l/m N 0,33 h 80 W/m 0,0 km/h (0 Bft)
20.06.2018 07:00 16,9 C 89 % 1019,1 hPa 0,0 l/m N 0,75 h 219 W/m 0,3 km/h (0 Bft)
20.06.2018 08:00 19,6 C 79 % 1018,9 hPa 0,0 l/m O 1,00 h 411 W/m 1,5 km/h (1 Bft)
20.06.2018 09:00 21,9 C 70 % 1018,7 hPa 0,0 l/m NO 0,83 h 453 W/m 9,1 km/h (2 Bft)
20.06.2018 10:00 23,7 C 64 % 1018,3 hPa 0,0 l/m O-NO 0,83 h 578 W/m 12,8 km/h (3 Bft)
20.06.2018 11:00 25,3 C 57 % 1017,9 hPa 0,0 l/m O 1,00 h 809 W/m 14,0 km/h (3 Bft)
20.06.2018 12:00 26,3 C 53 % 1017,7 hPa 0,0 l/m O-NO 1,00 h 872 W/m 14,9 km/h (3 Bft)
20.06.2018 13:00 27,5 C 49 % 1017,3 hPa 0,0 l/m O 1,00 h 893 W/m 17,0 km/h (3 Bft)
20.06.2018 14:00 28,3 C 47 % 1016,8 hPa 0,0 l/m O-SO 1,00 h 863 W/m 13,7 km/h (3 Bft)
20.06.2018 15:00 28,9 C 46 % 1016,5 hPa 0,0 l/m O-SO 1,00 h 786 W/m 11,6 km/h (2 Bft)
20.06.2018 16:00 29,2 C 46 % 1016,1 hPa 0,0 l/m O-SO 1,00 h 672 W/m 12,6 km/h (3 Bft)
20.06.2018 17:00 29,2 C 46 % 1015,5 hPa 0,0 l/m O 1,00 h 531 W/m 6,8 km/h (2 Bft)
20.06.2018 18:00 28,9 C 47 % 1015,1 hPa 0,0 l/m O 1,00 h 368 W/m 4,3 km/h (1 Bft)
20.06.2018 19:00 27,7 C 49 % 1014,8 hPa 0,0 l/m O 1,00 h 197 W/m 4,5 km/h (1 Bft)
20.06.2018 20:00 25,7 C 58 % 1014,8 hPa 0,0 l/m N 0,08 h 44 W/m 0,9 km/h (0 Bft)
20.06.2018 21:00 22,1 C 72 % 1014,9 hPa 0,0 l/m N 0,08 h 8 W/m 0,0 km/h (0 Bft)
20.06.2018 22:00 20,1 C 80 % 1015,1 hPa 0,0 l/m N 0,00 h 0 W/m 0,0 km/h (0 Bft)
20.06.2018 23:00 18,9 C 84 % 1015,0 hPa 0,0 l/m N 0,00 h 0 W/m 0,0 km/h (0 Bft)
21.06.2018 00:00 18,0 C 87 % 1014,7 hPa 0,0 l/m N 0,00 h 0 W/m 0,0 km/h (0 Bft)
21.06.2018 01:00 17,2 C 90 % 1014,3 hPa 0,0 l/m N 0,00 h 0 W/m 0,0 km/h (0 Bft)
21.06.2018 02:00 16,6 C 91 % 1014,0 hPa 0,0 l/m N 0,00 h 0 W/m 0,0 km/h (0 Bft)
21.06.2018 03:00 15,9 C 93 % 1013,7 hPa 0,0 l/m N 0,00 h 0 W/m 0,0 km/h (0 Bft)
21.06.2018 04:00 15,3 C 95 % 1013,4 hPa 0,0 l/m N 0,00 h 0 W/m 0,0 km/h (0 Bft)
21.06.2018 05:00 14,8 C 96 % 1013,1 hPa 0,0 l/m N 0,08 h 12 W/m 0,0 km/h (0 Bft)
21.06.2018 06:00 15,2 C 96 % 1013,3 hPa 0,0 l/m N 0,17 h 74 W/m 0,0 km/h (0 Bft)
21.06.2018 07:00 17,4 C 92 % 1013,3 hPa 0,0 l/m N 0,67 h 196 W/m 0,3 km/h (0 Bft)
21.06.2018 08:00 20,6 C 86 % 1013,1 hPa 0,0 l/m S-SW 1,00 h 402 W/m 6,4 km/h (2 Bft)
21.06.2018 09:00 23,3 C 76 % 1012,7 hPa 0,0 l/m W 0,75 h 422 W/m 7,5 km/h (2 Bft)
21.06.2018 10:00 24,8 C 69 % 1012,4 hPa 0,0 l/m W 0,50 h 460 W/m 12,2 km/h (2 Bft)
21.06.2018 11:00 25,3 C 65 % 1012,4 hPa 0,0 l/m W-NW 0,42 h 470 W/m 15,4 km/h (3 Bft)
21.06.2018 12:00 26,4 C 58 % 1012,0 hPa 0,0 l/m W-NW 0,58 h 708 W/m 18,4 km/h (3 Bft)
21.06.2018 13:00 25,8 C 59 % 1011,6 hPa 0,0 l/m W-NW 0,25 h 432 W/m 14,1 km/h (3 Bft)
21.06.2018 14:00 25,5 C 57 % 1011,6 hPa 0,0 l/m W-NW 0,17 h 350 W/m 16,6 km/h (3 Bft)
21.06.2018 15:00 26,1 C 52 % 1011,7 hPa 0,0 l/m N-NW 0,67 h 568 W/m 20,8 km/h (4 Bft)
21.06.2018 16:00 25,7 C 51 % 1011,8 hPa 0,0 l/m N-NW 0,67 h 507 W/m 21,8 km/h (4 Bft)
21.06.2018 17:00 25,0 C 49 % 1011,8 hPa 0,0 l/m N-NW 0,58 h 440 W/m 21,3 km/h (4 Bft)
21.06.2018 18:00 24,5 C 53 % 1012,0 hPa 0,0 l/m N-NW 0,75 h 355 W/m 19,6 km/h (3 Bft)
21.06.2018 19:00 22,6 C 59 % 1012,5 hPa 0,0 l/m N 0,17 h 128 W/m 20,9 km/h (4 Bft)
21.06.2018 20:00 20,2 C 71 % 1013,2 hPa 0,0 l/m N 0,00 h 30 W/m 11,0 km/h (2 Bft)
21.06.2018 21:00 19,2 C 71 % 1014,2 hPa 0,0 l/m N 0,08 h 8 W/m 12,7 km/h (3 Bft)
21.06.2018 22:00 17,5 C 66 % 1015,3 hPa 0,0 l/m N-NO 0,00 h 0 W/m 18,8 km/h (3 Bft)
21.06.2018 23:00 15,8 C 56 % 1016,6 hPa 0,0 l/m N 0,00 h 0 W/m 19,2 km/h (3 Bft)
22.06.2018 00:00 14,8 C 56 % 1017,3 hPa 0,0 l/m N-NO 0,00 h 0 W/m 15,7 km/h (3 Bft)
22.06.2018 01:00 13,5 C 59 % 1018,3 hPa 0,0 l/m N-NO 0,00 h 0 W/m 16,5 km/h (3 Bft)
22.06.2018 02:00 11,6 C 64 % 1018,8 hPa 0,0 l/m N 0,00 h 0 W/m 14,2 km/h (3 Bft)
22.06.2018 03:00 10,4 C 68 % 1019,4 hPa 0,0 l/m N 0,00 h 0 W/m 7,9 km/h (2 Bft)
22.06.2018 04:00 8,8 C 75 % 1019,6 hPa 0,0 l/m N 0,00 h 0 W/m 3,5 km/h (1 Bft)
22.06.2018 05:00 8,0 C 77 % 1019,8 hPa 0,0 l/m N 0,08 h 12 W/m 0,8 km/h (0 Bft)
22.06.2018 06:00 8,0 C 80 % 1019,9 hPa 0,0 l/m N-NW 0,33 h 82 W/m 4,7 km/h (1 Bft)
22.06.2018 07:00 9,6 C 77 % 1020,3 hPa 0,0 l/m N 0,75 h 222 W/m 10,6 km/h (2 Bft)
22.06.2018 08:00 11,3 C 71 % 1020,4 hPa 0,0 l/m N 1,00 h 421 W/m 9,8 km/h (2 Bft)
22.06.2018 09:00 12,8 C 64 % 1020,5 hPa 0,0 l/m W-NW 0,83 h 465 W/m 10,3 km/h (2 Bft)
22.06.2018 10:00 13,8 C 59 % 1020,6 hPa 0,0 l/m NW 0,58 h 511 W/m 12,9 km/h (3 Bft)
22.06.2018 11:00 15,1 C 55 % 1020,9 hPa 0,0 l/m W-NW 0,75 h 717 W/m 14,8 km/h (3 Bft)
22.06.2018 12:00 16,5 C 51 % 1020,8 hPa 0,0 l/m W 0,83 h 946 W/m 15,8 km/h (3 Bft)
22.06.2018 13:00 17,3 C 51 % 1020,7 hPa 0,0 l/m W-NW 0,58 h 714 W/m 14,4 km/h (3 Bft)
22.06.2018 14:00 17,1 C 49 % 1020,5 hPa 0,0 l/m N-NO 0,08 h 393 W/m 18,4 km/h (3 Bft)
22.06.2018 15:00 17,9 C 48 % 1020,7 hPa 0,0 l/m N-NO 0,50 h 637 W/m 20,0 km/h (4 Bft)
22.06.2018 16:00 17,6 C 48 % 1021,0 hPa 0,0 l/m N 0,75 h 622 W/m 24,5 km/h (4 Bft)
22.06.2018 17:00 17,9 C 45 % 1021,4 hPa 0,0 l/m N 0,75 h 564 W/m 20,8 km/h (4 Bft)
22.06.2018 18:00 17,1 C 48 % 1021,7 hPa 0,0 l/m N-NO 0,83 h 449 W/m 19,3 km/h (3 Bft)
22.06.2018 19:00 15,7 C 54 % 1021,9 hPa 0,0 l/m N 0,83 h 196 W/m 17,7 km/h (3 Bft)
22.06.2018 20:00 14,4 C 60 % 1022,2 hPa 0,0 l/m NO 0,50 h 69 W/m 11,4 km/h (2 Bft)
22.06.2018 21:00 13,0 C 66 % 1022,8 hPa 0,0 l/m N 0,08 h 9 W/m 0,5 km/h (0 Bft)
22.06.2018 22:00 10,9 C 77 % 1023,3 hPa 0,0 l/m N 0,00 h 0 W/m 0,0 km/h (0 Bft)
22.06.2018 23:00 9,9 C 81 % 1023,6 hPa 0,0 l/m N 0,00 h 0 W/m 0,0 km/h (0 Bft)
23.06.2018 00:00 9,5 C 83 % 1023,9 hPa 0,0 l/m N 0,00 h 0 W/m 0,0 km/h (0 Bft)
23.06.2018 01:00 9,3 C 84 % 1023,6 hPa 0,0 l/m N 0,00 h 0 W/m 0,0 km/h (0 Bft)
23.06.2018 02:00 8,6 C 88 % 1023,5 hPa 0,0 l/m N 0,00 h 0 W/m 0,0 km/h (0 Bft)
23.06.2018 03:00 8,2 C 89 % 1023,3 hPa 0,0 l/m N 0,00 h 0 W/m 0,0 km/h (0 Bft)
23.06.2018 04:00 7,9 C 88 % 1023,0 hPa 0,0 l/m N 0,00 h 0 W/m 0,0 km/h (0 Bft)
23.06.2018 05:00 7,3 C 91 % 1023,0 hPa 0,0 l/m N 0,08 h 13 W/m 0,0 km/h (0 Bft)
23.06.2018 06:00 7,7 C 90 % 1023,2 hPa 0,0 l/m N 0,33 h 80 W/m 0,0 km/h (0 Bft)
23.06.2018 07:00 9,8 C 84 % 1023,3 hPa 0,0 l/m N-NO 0,67 h 205 W/m 1,5 km/h (1 Bft)
23.06.2018 08:00 11,9 C 78 % 1023,4 hPa 0,0 l/m N-NO 0,92 h 371 W/m 5,9 km/h (2 Bft)
23.06.2018 09:00 13,9 C 69 % 1023,2 hPa 0,0 l/m O-SO 0,75 h 508 W/m 4,7 km/h (1 Bft)
23.06.2018 10:00 13,9 C 65 % 1022,9 hPa 0,0 l/m N 0,33 h 386 W/m 1,2 km/h (1 Bft)
23.06.2018 11:00 15,6 C 58 % 1022,8 hPa 0,0 l/m N 0,67 h 707 W/m 3,1 km/h (1 Bft)
23.06.2018 12:00 16,5 C 55 % 1022,6 hPa 0,0 l/m NO 0,58 h 763 W/m 6,0 km/h (2 Bft)
23.06.2018 13:00 17,6 C 51 % 1022,3 hPa 0,0 l/m NO 0,67 h 825 W/m 7,6 km/h (2 Bft)
23.06.2018 14:00 18,0 C 49 % 1021,9 hPa 0,0 l/m NO 0,50 h 671 W/m 8,9 km/h (2 Bft)
23.06.2018 15:00 19,2 C 48 % 1021,2 hPa 0,0 l/m N-NO 0,75 h 747 W/m 9,9 km/h (2 Bft)
23.06.2018 16:00 19,9 C 48 % 1020,9 hPa 0,0 l/m N-NO 0,83 h 643 W/m 13,6 km/h (3 Bft)
23.06.2018 17:00 19,8 C 47 % 1020,7 hPa 0,0 l/m N-NO 0,92 h 523 W/m 12,6 km/h (3 Bft)
23.06.2018 18:00 19,5 C 47 % 1020,5 hPa 0,0 l/m N-NO 0,92 h 361 W/m 14,4 km/h (3 Bft)
23.06.2018 19:00 18,2 C 52 % 1020,6 hPa 0,0 l/m N-NO 0,83 h 186 W/m 14,0 km/h (3 Bft)
23.06.2018 20:00 16,3 C 59 % 1020,7 hPa 0,0 l/m N-NO 0,00 h 47 W/m 6,2 km/h (2 Bft)
23.06.2018 21:00 14,3 C 68 % 1021,0 hPa 0,0 l/m N 0,08 h 11 W/m 0,3 km/h (0 Bft)
23.06.2018 22:00 12,3 C 77 % 1021,2 hPa 0,0 l/m N 0,00 h 0 W/m 0,0 km/h (0 Bft)
23.06.2018 23:00 11,8 C 78 % 1021,3 hPa 0,0 l/m N 0,00 h 0 W/m 0,0 km/h (0 Bft)
24.06.2018 00:00 11,4 C 79 % 1021,2 hPa 0,0 l/m N 0,00 h 0 W/m 0,0 km/h (0 Bft)
24.06.2018 01:00 11,1 C 80 % 1020,9 hPa 0,0 l/m N 0,00 h 0 W/m 0,0 km/h (0 Bft)
24.06.2018 02:00 10,6 C 84 % 1020,7 hPa 0,0 l/m N 0,00 h 0 W/m 0,0 km/h (0 Bft)
24.06.2018 03:00 10,7 C 85 % 1020,2 hPa 0,0 l/m N 0,00 h 0 W/m 0,0 km/h (0 Bft)
24.06.2018 04:00 10,7 C 85 % 1019,7 hPa 0,0 l/m N 0,00 h 0 W/m 0,0 km/h (0 Bft)
24.06.2018 05:00 9,9 C 88 % 1019,4 hPa 0,0 l/m N 0,08 h 14 W/m 0,8 km/h (0 Bft)
24.06.2018 06:00 10,5 C 88 % 1019,4 hPa 0,0 l/m N 0,67 h 107 W/m 0,0 km/h (0 Bft)
24.06.2018 07:00 12,5 C 81 % 1019,3 hPa 0,0 l/m N 0,75 h 212 W/m 0,9 km/h (0 Bft)
24.06.2018 08:00 14,0 C 77 % 1019,1 hPa 0,0 l/m N 0,92 h 294 W/m 1,7 km/h (1 Bft)
24.06.2018 09:00 15,1 C 72 % 1018,9 hPa 0,0 l/m O-SO 0,50 h 366 W/m 4,8 km/h (1 Bft)
24.06.2018 10:00 16,7 C 65 % 1018,6 hPa 0,0 l/m O 0,92 h 560 W/m 7,1 km/h (2 Bft)
24.06.2018 11:00 16,9 C 64 % 1018,5 hPa 0,0 l/m N-NO 0,17 h 353 W/m 7,5 km/h (2 Bft)
24.06.2018 12:00 17,5 C 61 % 1018,2 hPa 0,0 l/m NO 0,42 h 573 W/m 8,2 km/h (2 Bft)
24.06.2018 13:00 18,7 C 57 % 1017,7 hPa 0,0 l/m N-NO 0,50 h 697 W/m 9,5 km/h (2 Bft)
24.06.2018 14:00 19,2 C 54 % 1017,3 hPa 0,0 l/m N-NO 0,42 h 685 W/m 10,5 km/h (2 Bft)
24.06.2018 15:00 19,5 C 52 % 1017,1 hPa 0,0 l/m N-NO 0,58 h 450 W/m 12,0 km/h (2 Bft)
24.06.2018 16:00 19,6 C 54 % 1017,1 hPa 0,0 l/m NO 1,00 h 473 W/m 13,7 km/h (3 Bft)
24.06.2018 17:00 19,0 C 57 % 1016,9 hPa 0,0 l/m N-NO 0,92 h 384 W/m 15,8 km/h (3 Bft)
24.06.2018 18:00 18,2 C 59 % 1016,8 hPa 0,0 l/m NO 0,25 h 213 W/m 11,0 km/h (2 Bft)
24.06.2018 19:00 17,8 C 61 % 1016,9 hPa 0,0 l/m NO 0,50 h 151 W/m 7,1 km/h (2 Bft)
24.06.2018 20:00 16,9 C 61 % 1017,1 hPa 0,0 l/m N-NO 0,00 h 50 W/m 7,5 km/h (2 Bft)
24.06.2018 21:00 15,7 C 63 % 1017,4 hPa 0,0 l/m N 0,00 h 7 W/m 0,0 km/h (0 Bft)
24.06.2018 22:00 14,0 C 71 % 1017,7 hPa 0,0 l/m N 0,00 h 0 W/m 0,0 km/h (0 Bft)
24.06.2018 23:00 12,9 C 78 % 1017,7 hPa 0,0 l/m N 0,00 h 0 W/m 0,0 km/h (0 Bft)
Min-Datum _ 23.06.18 22.06.18 21.06.18 - - - - 18.06.18
_ Min-Zeit 04:55 17:35 13:45 - - - - 00:00
Minimum _ 7,2 C 42 % 1011,4 hPa - - - - 0,0 km/h (0 Bft)
Max-Datum _ 20.06.18 18.06.18 23.06.18 18.06.18 - 18.06.18 19.06.18 21.06.18
_ Max-Zeit 16:30 00:00 00:40 00:00 - 06:45 12:35 16:15
Maximum _ 29,4 C 97 % 1024,0 hPa 0,0 l/m - 0,08 h 1215 W/m 30,6 km/h
W-NW (5 Bft)
Durchschnitt _ 17,4 C 70 % 1018,9 hPa #0,0 l/m N-NO #62:05 h 379 W/m 5,9 km/h (2 Bft)